This is the latest recevied weather packets stored in our database for station/object GW1475. If no packets are shown the sender has not sent any weather packets the latest 10 day(s).
| Time | Temp. | Humidity | Pressure | Rain* | Wind** | Luminosity | Snow |
|---|---|---|---|---|---|---|---|
| 1777771814 | 7.78° C | 85% | 1011.1 hPa | 0 mm | - | - | - |
| 1777769323 | 9.44° C | 78% | 1010.8 hPa | 0 mm | - | - | - |
| 1777767495 | 10.56° C | 63% | 1010.8 hPa | 0 mm | - | - | - |
| 1777765721 | 11.11° C | 62% | 1010.8 hPa | 0 mm | - | - | - |
| 1777763532 | 12.22° C | 54% | 1010.4 hPa | 0 mm | - | - | - |
| 1777758852 | 12.78° C | 50% | 1010.4 hPa | 0 mm | - | - | - |
| 1777755634 | 13.33° C | 47% | 1009.8 hPa | 0 mm | - | - | - |
| 1777751654 | 12.78° C | 50% | 1010.4 hPa | 0 mm | - | - | - |
| 1777750969 | 13.33° C | 47% | 1010.1 hPa | 0 mm | - | - | - |
| 1777746280 | 12.78° C | 47% | 1011.1 hPa | 0 mm | - | - | - |
| 1777745574 | 13.33° C | 48% | 1011.1 hPa | 0 mm | - | - | - |
| 1777737984 | 12.22° C | 58% | 1011.5 hPa | 0 mm | - | - | - |
| 1777735839 | 12.22° C | 60% | 1011.5 hPa | 0 mm | - | - | - |
| 1777735453 | 12.22° C | 60% | 1012.1 hPa | 0 mm | - | - | - |
| 1777734045 | 11.67° C | 62% | 1011.8 hPa | 0 mm | - | - | - |
| 1777732610 | 10.56° C | 70% | 1012.1 hPa | 0 mm | - | - | - |
| 1777727567 | 7.22° C | 99% | 1011.8 hPa | 0 mm | - | - | - |
| 1777726834 | 6.11° C | 99% | 1012.1 hPa | 0 mm | - | - | - |
| 1777723604 | 3.33° C | 99% | 1012.1 hPa | 0 mm | - | - | - |
| 1777722892 | 3.33° C | 99% | 1011.8 hPa | 0 mm | - | - | - |
| 1777722152 | 3.33° C | 99% | 1012.1 hPa | 0 mm | - | - | - |
| 1777717127 | 3.33° C | 99% | 1011.5 hPa | 0 mm | - | - | - |
| 1777716391 | 2.78° C | 99% | 1011.8 hPa | 0 mm | - | - | - |
| 1777705945 | 4.44° C | 99% | 1011.5 hPa | 0 mm | - | - | - |
| 1777701647 | 6.11° C | 93% | 1011.8 hPa | 0 mm | - | - | - |
* Rain since midnight (hover to see other rain measurements)
** Current wind speed in m/s (hover to see current wind gust speed)